createdAt,value
2019-01-23T00:00:59.569Z,-0.30
2019-01-23T00:03:25.800Z,-0.30
2019-01-23T00:05:52.002Z,-0.30
2019-01-23T00:08:18.223Z,-0.30
2019-01-23T00:10:44.423Z,-0.30
2019-01-23T00:13:10.738Z,-0.20
2019-01-23T00:15:36.943Z,-0.20
2019-01-23T00:18:03.858Z,-0.30
2019-01-23T00:20:30.064Z,-0.20
2019-01-23T00:22:56.300Z,-0.20
2019-01-23T00:25:22.516Z,-0.30
2019-01-23T00:27:49.054Z,-0.20
2019-01-23T00:30:15.383Z,-0.20
2019-01-23T00:32:41.573Z,-0.10
2019-01-23T00:35:08.094Z,-0.10
2019-01-23T00:37:34.300Z,-0.10
2019-01-23T00:40:00.514Z,-0.20
2019-01-23T00:42:26.806Z,-0.10
2019-01-23T00:44:53.043Z,-0.20
2019-01-23T00:47:19.466Z,-0.20
2019-01-23T00:49:45.692Z,-0.20
2019-01-23T00:52:11.895Z,-0.20
2019-01-23T00:54:38.330Z,-0.20
2019-01-23T00:57:04.638Z,-0.20
2019-01-23T00:59:30.854Z,-0.20
2019-01-23T01:01:57.174Z,-0.20
2019-01-23T01:04:23.394Z,-0.10
2019-01-23T01:06:49.590Z,-0.10
2019-01-23T01:09:16.623Z,-0.10
2019-01-23T01:11:42.828Z,-0.10
2019-01-23T01:14:09.046Z,-0.10
2019-01-23T01:16:35.242Z,-0.10
2019-01-23T01:19:01.442Z,-0.20
2019-01-23T01:21:27.766Z,-0.10
2019-01-23T01:23:53.982Z,-0.10
2019-01-23T01:26:20.214Z,-0.10
2019-01-23T01:28:55.841Z,-0.10
2019-01-23T01:31:17.638Z,-0.10
2019-01-23T01:33:43.846Z,-0.10
2019-01-23T01:36:10.068Z,-0.10
2019-01-23T01:38:36.371Z,-0.10
2019-01-23T01:41:02.795Z,-0.20
2019-01-23T01:43:28.999Z,-0.10
2019-01-23T01:45:55.217Z,-0.10
2019-01-23T01:48:21.494Z,-0.10
2019-01-23T01:50:47.715Z,-0.10
2019-01-23T01:53:13.957Z,-0.10
2019-01-23T01:55:40.164Z,0.00
2019-01-23T01:58:10.011Z,-0.10
2019-01-23T02:00:34.987Z,0.00
2019-01-23T02:03:01.282Z,-0.10
2019-01-23T02:05:27.503Z,-0.10
2019-01-23T02:07:53.950Z,-0.20
2019-01-23T02:10:20.570Z,-0.10
2019-01-23T02:12:47.092Z,-0.20
2019-01-23T02:15:14.110Z,-0.20
2019-01-23T02:17:40.646Z,-0.10
2019-01-23T02:20:10.470Z,-0.10
2019-01-23T02:22:36.978Z,-0.10
2019-01-23T02:25:04.997Z,-0.10
2019-01-23T02:27:31.298Z,-0.10
2019-01-23T02:29:57.522Z,-0.10
2019-01-23T02:32:23.727Z,-0.20
2019-01-23T02:34:49.926Z,-0.10
2019-01-23T02:37:16.146Z,-0.10
2019-01-23T02:39:42.349Z,-0.10
2019-01-23T02:42:08.667Z,-0.10
2019-01-23T02:44:34.867Z,-0.10
2019-01-23T02:47:01.082Z,-0.20
2019-01-23T02:49:33.406Z,-0.10
2019-01-23T02:51:59.640Z,-0.10
2019-01-23T02:54:25.837Z,-0.10
2019-01-23T02:56:52.050Z,-0.10
2019-01-23T02:59:18.253Z,-0.10
2019-01-23T03:01:44.481Z,-0.10
2019-01-23T03:04:10.678Z,-0.10
2019-01-23T03:06:36.906Z,-0.10
2019-01-23T03:09:08.892Z,-0.10
2019-01-23T03:11:35.092Z,-0.10
2019-01-23T03:14:01.518Z,-0.10
2019-01-23T03:16:27.716Z,-0.10
2019-01-23T03:18:53.950Z,-0.10
2019-01-23T03:21:20.254Z,-0.10
2019-01-23T03:23:49.669Z,-0.20
2019-01-23T03:26:15.872Z,-0.10
2019-01-23T03:28:42.181Z,-0.10
2019-01-23T03:31:08.383Z,-0.10
2019-01-23T03:33:34.615Z,-0.10
2019-01-23T03:36:00.918Z,0.00
2019-01-23T03:38:27.141Z,-0.10
2019-01-23T03:40:53.369Z,-0.10
2019-01-23T03:43:19.672Z,-0.10
2019-01-23T03:45:45.885Z,-0.10
2019-01-23T03:48:12.180Z,-0.10
2019-01-23T03:50:38.413Z,0.00
2019-01-23T03:53:04.825Z,0.00
2019-01-23T03:55:31.033Z,0.00
2019-01-23T03:57:57.240Z,-0.10
2019-01-23T04:00:23.462Z,0.00
2019-01-23T04:02:51.084Z,-0.10
2019-01-23T04:05:17.563Z,-0.10
2019-01-23T04:07:43.937Z,-0.10
2019-01-23T04:10:14.777Z,-0.10
2019-01-23T04:12:41.291Z,-0.10
2019-01-23T04:15:09.534Z,-0.10
2019-01-23T04:17:35.856Z,0.00
2019-01-23T04:20:05.359Z,0.00
2019-01-23T04:22:31.897Z,0.00
2019-01-23T04:24:58.098Z,0.00
2019-01-23T04:27:24.311Z,0.00
2019-01-23T04:29:50.526Z,0.00
2019-01-23T04:32:16.732Z,0.00
2019-01-23T04:34:42.947Z,0.00
2019-01-23T04:37:09.146Z,0.10
2019-01-23T04:39:35.367Z,0.00
2019-01-23T04:42:01.687Z,0.10
2019-01-23T04:44:27.909Z,0.00
2019-01-23T04:46:54.114Z,0.00
2019-01-23T04:49:20.339Z,0.00
2019-01-23T04:51:48.467Z,0.00
2019-01-23T04:54:14.973Z,0.00
2019-01-23T04:56:41.200Z,0.00
2019-01-23T04:59:07.423Z,-0.10
2019-01-23T05:01:33.735Z,-0.10
2019-01-23T05:04:00.231Z,0.00
2019-01-23T05:06:26.460Z,0.00
2019-01-23T05:08:52.663Z,0.00
2019-01-23T05:11:18.882Z,0.00
2019-01-23T05:13:45.194Z,0.00
2019-01-23T05:16:11.414Z,0.00
2019-01-23T05:18:37.620Z,0.00
2019-01-23T05:21:03.938Z,0.00
2019-01-23T05:23:30.144Z,0.00
2019-01-23T05:25:56.413Z,0.00
2019-01-23T05:28:22.622Z,0.00
2019-01-23T05:30:48.817Z,0.00
2019-01-23T05:33:15.035Z,0.00
2019-01-23T05:35:41.236Z,0.00
2019-01-23T05:38:07.586Z,0.00
2019-01-23T05:40:33.791Z,0.00
2019-01-23T05:43:00.028Z,0.00
2019-01-23T05:45:26.253Z,0.00
2019-01-23T05:47:52.491Z,0.00
2019-01-23T05:50:18.705Z,0.00
2019-01-23T05:52:47.130Z,-0.10
2019-01-23T05:55:13.423Z,-0.10
2019-01-23T05:57:39.631Z,0.00
2019-01-23T06:00:12.667Z,-0.10
2019-01-23T06:02:39.123Z,-0.10
2019-01-23T06:05:07.595Z,0.00
2019-01-23T06:07:33.938Z,0.00
2019-01-23T06:10:00.304Z,0.00
2019-01-23T06:12:26.554Z,0.00
2019-01-23T06:14:52.792Z,0.00
2019-01-23T06:17:18.986Z,-0.10
2019-01-23T06:19:45.208Z,-0.10
2019-01-23T06:22:11.432Z,0.00
2019-01-23T06:24:37.656Z,0.00
2019-01-23T06:27:04.261Z,0.10
2019-01-23T06:29:30.470Z,0.10
2019-01-23T06:31:56.695Z,0.10
2019-01-23T06:34:22.938Z,0.10
2019-01-23T06:36:49.483Z,0.10
2019-01-23T06:39:15.682Z,0.10
2019-01-23T06:41:42.404Z,0.00
2019-01-23T06:44:08.627Z,0.00
2019-01-23T06:46:34.842Z,0.00
2019-01-23T06:49:01.155Z,0.00
2019-01-23T06:51:27.370Z,0.00
2019-01-23T06:53:53.571Z,0.00
2019-01-23T06:56:19.790Z,0.10
2019-01-23T06:58:46.054Z,0.10
2019-01-23T07:01:12.282Z,0.00
2019-01-23T07:03:38.589Z,0.00
2019-01-23T07:06:04.794Z,0.00
2019-01-23T07:08:31.118Z,0.00
2019-01-23T07:11:00.384Z,-0.10
2019-01-23T07:13:26.943Z,-0.10
2019-01-23T07:15:53.151Z,-0.10
2019-01-23T07:18:19.391Z,-0.10
2019-01-23T07:20:45.594Z,0.00
2019-01-23T07:23:11.814Z,-0.10
2019-01-23T07:25:38.027Z,-0.10
2019-01-23T07:28:04.250Z,0.00
2019-01-23T07:30:33.662Z,0.00
2019-01-23T07:33:00.106Z,0.00
2019-01-23T07:35:26.538Z,0.10
2019-01-23T07:37:53.041Z,0.00
2019-01-23T07:40:19.258Z,0.00
2019-01-23T07:42:45.466Z,0.10
2019-01-23T07:45:20.579Z,0.00
2019-01-23T07:47:46.782Z,0.10
2019-01-23T07:50:19.379Z,0.10
2019-01-23T07:52:46.202Z,0.00
2019-01-23T07:55:17.303Z,0.10
2019-01-23T07:57:43.507Z,0.10
2019-01-23T08:00:12.634Z,0.10
2019-01-23T08:02:38.944Z,0.10
2019-01-23T08:05:08.662Z,0.20
2019-01-23T08:07:34.861Z,0.30
2019-01-23T08:10:01.414Z,0.30
2019-01-23T08:12:27.623Z,0.20
2019-01-23T08:14:53.861Z,0.30
2019-01-23T08:17:20.066Z,0.30
2019-01-23T08:19:46.586Z,0.30
2019-01-23T08:22:12.827Z,0.40
2019-01-23T08:24:39.023Z,0.40
2019-01-23T08:27:07.166Z,0.40
2019-01-23T08:29:33.660Z,0.50
2019-01-23T08:31:59.983Z,0.60
2019-01-23T08:34:26.190Z,0.70
2019-01-23T08:36:52.411Z,0.70
2019-01-23T08:39:18.618Z,0.80
2019-01-23T08:41:44.842Z,0.80
2019-01-23T08:44:11.292Z,0.70
2019-01-23T08:46:37.515Z,0.70
2019-01-23T08:49:04.014Z,0.70
2019-01-23T08:51:30.239Z,0.80
2019-01-23T08:53:56.444Z,0.70
2019-01-23T08:56:22.787Z,0.80
2019-01-23T08:58:49.093Z,0.80
2019-01-23T09:01:15.290Z,0.80
2019-01-23T09:03:41.519Z,0.80
2019-01-23T09:06:07.714Z,0.90
2019-01-23T09:08:37.770Z,0.90
2019-01-23T09:11:02.362Z,1.00
2019-01-23T09:13:28.635Z,1.10
2019-01-23T09:15:54.833Z,1.10
2019-01-23T09:18:21.374Z,1.20
2019-01-23T09:20:47.573Z,1.20
2019-01-23T09:23:13.782Z,1.20
2019-01-23T09:25:40.009Z,1.20
2019-01-23T09:28:06.210Z,1.40
2019-01-23T09:30:42.181Z,1.40
2019-01-23T09:33:28.848Z,1.20
2019-01-23T09:36:17.118Z,1.10
2019-01-23T09:39:02.082Z,1.30
2019-01-23T09:41:41.276Z,1.20
2019-01-23T09:44:38.991Z,1.20
2019-01-23T09:47:12.030Z,1.40
2019-01-23T09:49:53.614Z,1.60
2019-01-23T09:52:32.490Z,1.70
2019-01-23T09:54:58.914Z,1.80
2019-01-23T09:57:25.118Z,1.80
2019-01-23T09:59:51.314Z,1.60
2019-01-23T10:02:17.611Z,1.60
2019-01-23T10:04:43.824Z,1.60
2019-01-23T10:07:10.036Z,1.50
2019-01-23T10:09:36.519Z,1.50
2019-01-23T10:12:03.743Z,1.60
2019-01-23T10:14:30.060Z,1.70
2019-01-23T10:16:56.371Z,1.70
2019-01-23T10:19:22.582Z,1.90
2019-01-23T10:21:48.799Z,1.90
2019-01-23T10:24:15.005Z,1.90
2019-01-23T10:26:41.223Z,2.10
2019-01-23T10:29:07.418Z,2.10
2019-01-23T10:31:36.175Z,2.00
2019-01-23T10:34:02.882Z,1.90
2019-01-23T10:36:29.104Z,1.80
2019-01-23T10:38:55.374Z,1.90
2019-01-23T10:41:21.863Z,2.00
2019-01-23T10:43:48.197Z,2.10
2019-01-23T10:46:14.567Z,2.30
2019-01-23T10:48:40.949Z,2.20
2019-01-23T10:51:07.407Z,2.00
2019-01-23T10:53:33.646Z,1.90
2019-01-23T10:56:00.346Z,2.10
2019-01-23T10:58:26.609Z,2.20
2019-01-23T11:00:52.939Z,2.10
2019-01-23T11:03:19.315Z,2.20
2019-01-23T11:05:45.737Z,2.30
2019-01-23T11:08:12.103Z,2.50
2019-01-23T11:10:38.467Z,2.50
2019-01-23T11:13:05.114Z,2.60
2019-01-23T11:15:34.426Z,2.60
2019-01-23T11:18:00.678Z,2.60
2019-01-23T11:20:26.994Z,2.80
2019-01-23T11:22:53.258Z,2.50
2019-01-23T11:25:19.511Z,2.50
2019-01-23T11:27:46.550Z,2.50
2019-01-23T11:30:18.690Z,2.70
2019-01-23T11:32:45.039Z,2.70
2019-01-23T11:35:11.298Z,2.60
2019-01-23T11:37:37.585Z,2.70
2019-01-23T11:40:10.533Z,2.60
2019-01-23T11:42:36.989Z,2.60
2019-01-23T11:45:09.073Z,2.60
2019-01-23T11:47:35.449Z,2.60
2019-01-23T11:50:03.578Z,2.90
2019-01-23T11:52:30.028Z,3.10
2019-01-23T11:54:56.401Z,3.10
2019-01-23T11:57:22.757Z,2.90
2019-01-23T11:59:48.979Z,2.80
2019-01-23T12:02:15.363Z,2.90
2019-01-23T12:04:42.642Z,2.80
2019-01-23T12:07:08.926Z,2.70
2019-01-23T12:09:35.553Z,2.50
2019-01-23T12:12:02.106Z,2.50
2019-01-23T12:14:28.468Z,2.50
2019-01-23T12:16:55.030Z,2.50
2019-01-23T12:19:21.306Z,2.70
2019-01-23T12:21:47.672Z,2.60
2019-01-23T12:24:14.064Z,2.50
2019-01-23T12:26:40.410Z,2.70
2019-01-23T12:29:06.859Z,2.70
2019-01-23T12:31:35.120Z,2.60
2019-01-23T12:34:01.287Z,2.60
2019-01-23T12:36:27.838Z,2.60
2019-01-23T12:38:54.203Z,2.50
2019-01-23T12:41:20.562Z,2.70
2019-01-23T12:43:46.999Z,2.70
2019-01-23T12:46:13.258Z,2.70
2019-01-23T12:48:39.670Z,2.70
2019-01-23T12:51:06.145Z,2.90
2019-01-23T12:53:32.499Z,2.70
2019-01-23T12:55:58.882Z,2.80
2019-01-23T12:58:25.229Z,2.90
2019-01-23T13:00:51.441Z,3.00
2019-01-23T13:03:18.016Z,3.00
2019-01-23T13:05:44.245Z,3.00
2019-01-23T13:08:10.638Z,2.90
2019-01-23T13:10:36.866Z,3.10
2019-01-23T13:13:03.690Z,3.00
2019-01-23T13:15:29.889Z,2.80
2019-01-23T13:17:56.819Z,2.80
2019-01-23T13:20:24.935Z,2.80
2019-01-23T13:22:51.568Z,2.80
2019-01-23T13:25:20.370Z,2.90
2019-01-23T13:27:46.790Z,2.90
2019-01-23T13:30:15.827Z,2.80
2019-01-23T13:32:42.239Z,2.80
2019-01-23T13:35:11.938Z,2.90
2019-01-23T13:37:38.274Z,2.80
2019-01-23T13:40:08.314Z,2.70
2019-01-23T13:42:34.521Z,2.70
2019-01-23T13:45:04.001Z,2.90
2019-01-23T13:47:30.202Z,3.00
2019-01-23T13:49:56.431Z,2.90
2019-01-23T13:52:22.633Z,2.90
2019-01-23T13:54:48.854Z,3.20
2019-01-23T13:57:15.127Z,3.30
2019-01-23T13:59:41.430Z,3.20
2019-01-23T14:02:07.626Z,3.20
2019-01-23T14:04:33.843Z,3.10
2019-01-23T14:07:00.060Z,3.00
2019-01-23T14:09:26.274Z,3.00
2019-01-23T14:11:52.478Z,3.00
2019-01-23T14:14:18.726Z,2.80
2019-01-23T14:16:44.988Z,2.60
2019-01-23T14:19:11.239Z,2.50
2019-01-23T14:21:37.459Z,2.50
2019-01-23T14:24:03.675Z,2.30
2019-01-23T14:26:29.899Z,2.20
2019-01-23T14:28:56.094Z,2.10
2019-01-23T14:31:22.327Z,2.00
2019-01-23T14:33:48.522Z,1.80
2019-01-23T14:36:14.742Z,1.80
2019-01-23T14:38:41.051Z,1.60
2019-01-23T14:41:07.282Z,1.70
2019-01-23T14:43:33.691Z,1.60
2019-01-23T14:46:00.002Z,1.70
2019-01-23T14:48:26.286Z,1.70
2019-01-23T14:50:52.487Z,1.70
2019-01-23T14:53:18.702Z,1.60
2019-01-23T14:55:44.913Z,1.60
2019-01-23T14:58:11.242Z,1.50
2019-01-23T15:00:37.547Z,1.50
2019-01-23T15:03:04.163Z,1.50
2019-01-23T15:05:30.481Z,1.50
2019-01-23T15:07:56.710Z,1.40
2019-01-23T15:10:28.564Z,1.40
2019-01-23T15:12:55.092Z,1.30
2019-01-23T15:15:21.597Z,1.40
2019-01-23T15:17:48.011Z,1.40
2019-01-23T15:20:23.219Z,1.30
2019-01-23T15:22:49.428Z,1.20
2019-01-23T15:25:15.978Z,1.30
2019-01-23T15:27:42.203Z,1.40
2019-01-23T15:30:17.663Z,1.30
2019-01-23T15:32:43.871Z,1.30
2019-01-23T15:35:10.695Z,1.30
2019-01-23T15:37:37.003Z,1.30
2019-01-23T15:40:07.051Z,1.20
2019-01-23T15:42:33.250Z,1.20
2019-01-23T15:44:59.471Z,1.10
2019-01-23T15:47:25.672Z,1.20
2019-01-23T15:49:51.892Z,1.10
2019-01-23T15:52:18.097Z,1.20
2019-01-23T15:54:44.314Z,1.00
2019-01-23T15:57:10.523Z,1.10
2019-01-23T15:59:36.846Z,1.00
2019-01-23T16:02:03.464Z,1.10
2019-01-23T16:04:29.771Z,1.00
2019-01-23T16:06:56.275Z,1.10
2019-01-23T16:09:22.709Z,1.10
2019-01-23T16:11:49.002Z,1.10
2019-01-23T16:14:15.260Z,1.10
2019-01-23T16:16:41.730Z,1.10
2019-01-23T16:19:07.935Z,1.00
2019-01-23T16:21:34.158Z,1.00
2019-01-23T16:24:00.369Z,1.10
2019-01-23T16:26:26.583Z,1.00
2019-01-23T16:28:52.778Z,0.90
2019-01-23T16:31:19.007Z,0.90
2019-01-23T16:33:45.206Z,1.00
2019-01-23T16:36:11.430Z,1.00
2019-01-23T16:38:37.640Z,1.00
2019-01-23T16:41:04.165Z,0.90
2019-01-23T16:43:30.371Z,0.90
2019-01-23T16:45:56.678Z,0.90
2019-01-23T16:48:23.050Z,0.90
2019-01-23T16:50:49.249Z,0.90
2019-01-23T16:53:15.462Z,0.90
2019-01-23T16:55:42.002Z,0.90
2019-01-23T16:58:09.474Z,0.90
2019-01-23T17:00:36.273Z,0.90
2019-01-23T17:03:03.963Z,0.90
2019-01-23T17:05:31.566Z,0.90
2019-01-23T17:08:00.055Z,0.80
2019-01-23T17:10:27.098Z,0.80
2019-01-23T17:12:53.333Z,0.80
2019-01-23T17:15:19.958Z,0.80
2019-01-23T17:17:46.370Z,0.80
2019-01-23T17:20:16.402Z,0.80
2019-01-23T17:22:42.710Z,0.80
2019-01-23T17:25:10.434Z,0.70
2019-01-23T17:27:36.738Z,0.90
2019-01-23T17:30:06.661Z,0.90
2019-01-23T17:32:32.858Z,0.80
2019-01-23T17:34:59.394Z,0.70
2019-01-23T17:37:25.795Z,0.70
2019-01-23T17:39:52.030Z,0.70
2019-01-23T17:42:18.238Z,0.80
2019-01-23T17:44:44.450Z,0.70
2019-01-23T17:47:10.807Z,0.70
2019-01-23T17:49:37.076Z,0.80
2019-01-23T17:52:03.430Z,0.80
2019-01-23T17:54:29.668Z,0.80
2019-01-23T17:56:56.084Z,0.80
2019-01-23T17:59:22.278Z,0.70
2019-01-23T18:01:48.644Z,0.70
2019-01-23T18:04:14.927Z,0.70
2019-01-23T18:06:41.258Z,0.80
2019-01-23T18:09:08.166Z,0.80
2019-01-23T18:11:34.382Z,0.60
2019-01-23T18:14:00.591Z,0.70
2019-01-23T18:16:26.812Z,0.60
2019-01-23T18:18:53.017Z,0.60
2019-01-23T18:21:19.346Z,0.60
2019-01-23T18:23:45.561Z,0.60
2019-01-23T18:26:11.772Z,0.60
2019-01-23T18:28:38.074Z,0.60
2019-01-23T18:31:08.110Z,0.60
2019-01-23T18:33:44.406Z,0.50
2019-01-23T18:36:17.374Z,0.50
2019-01-23T18:38:53.470Z,0.50
2019-01-23T18:41:24.852Z,0.50
2019-01-23T18:44:16.118Z,0.50
2019-01-23T18:46:48.890Z,0.50
2019-01-23T18:49:18.904Z,0.50
2019-01-23T18:51:51.674Z,0.50
2019-01-23T18:54:17.974Z,0.60
2019-01-23T18:56:44.170Z,0.60
2019-01-23T18:59:10.401Z,0.60
2019-01-23T19:01:36.603Z,0.70
2019-01-23T19:04:03.594Z,0.60
2019-01-23T19:06:29.786Z,0.60
2019-01-23T19:08:56.014Z,0.60
2019-01-23T19:11:22.222Z,0.60
2019-01-23T19:13:48.451Z,0.50
2019-01-23T19:16:14.960Z,0.50
2019-01-23T19:18:41.277Z,0.60
2019-01-23T19:21:07.469Z,0.50
2019-01-23T19:23:33.686Z,0.50
2019-01-23T19:26:00.003Z,0.50
2019-01-23T19:28:26.227Z,0.50
2019-01-23T19:30:52.634Z,0.60
2019-01-23T19:33:18.851Z,0.60
2019-01-23T19:35:45.163Z,0.60
2019-01-23T19:38:11.569Z,0.70
2019-01-23T19:40:37.986Z,0.60
2019-01-23T19:43:04.218Z,0.70
2019-01-23T19:45:30.551Z,0.60
2019-01-23T19:47:56.766Z,0.40
2019-01-23T19:50:22.972Z,0.50
2019-01-23T19:52:49.186Z,0.50
2019-01-23T19:55:15.599Z,0.50
2019-01-23T19:57:42.122Z,0.50
2019-01-23T20:00:14.358Z,0.50
2019-01-23T20:02:40.583Z,0.50
2019-01-23T20:05:10.495Z,0.50
2019-01-23T20:07:36.686Z,0.50
2019-01-23T20:10:06.809Z,0.40
2019-01-23T20:12:33.025Z,0.40
2019-01-23T20:14:59.244Z,0.40
2019-01-23T20:17:25.450Z,0.30
2019-01-23T20:19:51.666Z,0.30
2019-01-23T20:22:17.982Z,0.30
2019-01-23T20:24:44.242Z,0.20
2019-01-23T20:27:10.446Z,0.20
2019-01-23T20:29:36.658Z,0.30
2019-01-23T20:32:03.168Z,0.30
2019-01-23T20:34:29.394Z,0.30
2019-01-23T20:36:55.604Z,0.40
2019-01-23T20:39:21.826Z,0.30
2019-01-23T20:41:48.046Z,0.20
2019-01-23T20:44:14.247Z,0.20
2019-01-23T20:46:40.467Z,0.20
2019-01-23T20:49:06.671Z,0.20
2019-01-23T20:51:33.127Z,0.30
2019-01-23T20:53:59.558Z,0.30
2019-01-23T20:56:25.789Z,0.20
2019-01-23T20:58:52.082Z,0.20
2019-01-23T21:01:18.310Z,0.30
2019-01-23T21:03:44.522Z,0.20
2019-01-23T21:06:10.842Z,0.20
2019-01-23T21:08:37.039Z,0.20
2019-01-23T21:11:04.065Z,0.20
2019-01-23T21:13:30.271Z,0.10
2019-01-23T21:15:56.478Z,0.10
2019-01-23T21:18:22.698Z,0.10
2019-01-23T21:20:48.902Z,0.00
2019-01-23T21:23:15.118Z,0.10
2019-01-23T21:25:41.424Z,0.10
2019-01-23T21:28:07.639Z,0.30
2019-01-23T21:30:34.028Z,0.20
2019-01-23T21:33:00.439Z,0.30
2019-01-23T21:35:26.646Z,0.20
2019-01-23T21:37:53.062Z,0.30
2019-01-23T21:40:25.678Z,0.30
2019-01-23T21:42:54.726Z,0.30
2019-01-23T21:45:20.933Z,0.30
2019-01-23T21:47:48.730Z,0.40
2019-01-23T21:50:17.259Z,0.40
2019-01-23T21:52:43.557Z,0.40
2019-01-23T21:55:12.687Z,0.30
2019-01-23T21:57:38.990Z,0.30
2019-01-23T22:00:20.775Z,0.40
2019-01-23T22:02:47.006Z,0.40
2019-01-23T22:05:14.007Z,0.30
2019-01-23T22:07:40.345Z,0.30
2019-01-23T22:10:09.959Z,0.30
2019-01-23T22:12:36.281Z,0.20
2019-01-23T22:15:11.907Z,0.30
2019-01-23T22:17:38.214Z,0.40
2019-01-23T22:20:08.243Z,0.40
2019-01-23T22:22:34.479Z,0.40
2019-01-23T22:25:08.627Z,0.30
2019-01-23T22:27:34.853Z,0.30
2019-01-23T22:30:01.100Z,0.20
2019-01-23T22:32:27.294Z,0.10
2019-01-23T22:34:53.495Z,0.20
2019-01-23T22:37:19.734Z,0.10
2019-01-23T22:39:45.939Z,0.10
2019-01-23T22:42:12.278Z,0.10
2019-01-23T22:44:38.483Z,0.20
2019-01-23T22:47:05.290Z,0.30
2019-01-23T22:49:31.686Z,0.30
2019-01-23T22:51:58.007Z,0.50
2019-01-23T22:54:24.453Z,0.50
2019-01-23T22:56:50.683Z,0.40
2019-01-23T22:59:16.906Z,0.20
2019-01-23T23:01:43.210Z,0.30
2019-01-23T23:04:12.090Z,0.20
2019-01-23T23:06:38.515Z,0.30
2019-01-23T23:09:07.544Z,0.40
2019-01-23T23:11:33.846Z,0.30
2019-01-23T23:14:00.149Z,0.40
2019-01-23T23:16:27.447Z,0.40
2019-01-23T23:18:53.671Z,0.20
2019-01-23T23:21:19.878Z,0.30
2019-01-23T23:23:46.102Z,0.30
2019-01-23T23:26:12.306Z,0.20
2019-01-23T23:28:38.728Z,0.20
2019-01-23T23:31:05.129Z,0.20
2019-01-23T23:33:31.683Z,0.30
2019-01-23T23:35:58.115Z,0.20
2019-01-23T23:38:24.352Z,0.10
2019-01-23T23:40:50.550Z,0.00
2019-01-23T23:43:16.867Z,0.20
2019-01-23T23:45:43.178Z,0.10
2019-01-23T23:48:09.383Z,0.00
2019-01-23T23:50:35.710Z,0.10
2019-01-23T23:53:02.018Z,-0.10
2019-01-23T23:55:28.238Z,-0.10
2019-01-23T23:57:54.434Z,0.00
